Time;durP1;ratioP1;P1;durP2;ratioP2;P2;SDS_P1;SDS_P2;PMS_P1;PMS_P2;Temp;Humidity;BMP_temperature;BMP_pressure;BME280_temperature;BME280_humidity;BME280_pressure;Samples;Min_cycle;Max_cycle;Signal;HPM_P1;HPM_P2
2022/01/11 00:00:41;;;;;;;72.65;21.15;;;-0.60;99.90;;;;;;5073357;28;20071;-74
2022/01/11 00:03:09;;;;;;;80.53;20.30;;;-0.60;99.90;;;;;;5074327;28;20071;-76
2022/01/11 00:05:41;;;;;;;64.85;20.35;;;-0.60;99.90;;;;;;5073449;28;20044;-75
2022/01/11 00:08:10;;;;;;;54.30;20.02;;;-0.60;99.90;;;;;;5073078;28;20069;-76
2022/01/11 00:10:47;;;;;;;91.78;20.80;;;-0.60;99.90;;;;;;5072202;28;20070;-75
2022/01/11 00:13:16;;;;;;;101.10;21.65;;;-0.70;99.90;;;;;;5073095;28;20048;-74
2022/01/11 00:15:43;;;;;;;74.22;20.42;;;-0.70;99.90;;;;;;5072859;28;20056;-75
2022/01/11 00:18:10;;;;;;;48.92;21.23;;;-0.70;99.90;;;;;;5072437;28;20052;-74
2022/01/11 00:20:38;;;;;;;55.70;19.98;;;-0.80;99.90;;;;;;5072563;28;20060;-75
2022/01/11 00:25:51;;;;;;;95.95;22.17;;;-0.80;99.90;;;;;;5073074;28;20119;-75
2022/01/11 00:28:21;;;;;;;107.85;23.20;;;-0.80;99.90;;;;;;5072828;28;20060;-75
2022/01/11 00:30:49;;;;;;;47.08;19.52;;;-0.80;99.90;;;;;;5071915;28;20084;-75
2022/01/11 00:33:20;;;;;;;94.35;21.00;;;-0.90;99.90;;;;;;5072689;28;20052;-76
2022/01/11 00:35:57;;;;;;;72.32;19.85;;;-0.90;99.90;;;;;;5072708;28;20522;-76
2022/01/11 00:38:26;;;;;;;75.13;20.35;;;-0.90;99.90;;;;;;5072001;28;20549;-75
2022/01/11 00:40:55;;;;;;;62.10;20.35;;;-0.90;99.90;;;;;;5072635;28;20095;-75
2022/01/11 00:43:25;;;;;;;62.72;20.15;;;-0.90;99.90;;;;;;5072603;28;20060;-75
2022/01/11 00:45:54;;;;;;;39.20;20.00;;;-1.00;99.90;;;;;;5071895;28;20044;-75
2022/01/11 00:48:21;;;;;;;62.50;21.02;;;-0.90;99.90;;;;;;5073457;28;20052;-74
2022/01/11 00:50:48;;;;;;;45.40;20.02;;;-1.00;99.90;;;;;;5072269;28;20064;-75
2022/01/11 00:53:15;;;;;;;41.13;19.80;;;-1.00;99.90;;;;;;5071192;28;20114;-75
2022/01/11 00:55:44;;;;;;;50.33;20.67;;;-1.00;99.90;;;;;;5072407;28;20052;-75
2022/01/11 00:58:11;;;;;;;54.30;20.23;;;-1.00;99.90;;;;;;5071263;28;20049;-74
2022/01/11 01:00:39;;;;;;;75.65;21.05;;;-1.00;99.90;;;;;;5071952;28;20500;-75
2022/01/11 01:03:07;;;;;;;86.43;21.40;;;-1.00;99.90;;;;;;5071538;28;20095;-74
2022/01/11 01:05:34;;;;;;;64.88;22.13;;;-1.00;99.90;;;;;;5071136;28;20466;-74
2022/01/11 01:08:01;;;;;;;86.40;21.15;;;-1.00;99.90;;;;;;5072167;28;20060;-75
2022/01/11 01:10:35;;;;;;;65.53;21.75;;;-1.00;99.90;;;;;;5072001;28;20523;-74
2022/01/11 01:13:04;;;;;;;80.82;22.20;;;-1.00;99.90;;;;;;5071850;28;20062;-75
2022/01/11 01:15:34;;;;;;;57.60;21.98;;;-1.00;99.90;;;;;;5071843;28;20480;-75
2022/01/11 01:18:03;;;;;;;77.55;23.05;;;-1.10;99.90;;;;;;5072091;28;20068;-75
2022/01/11 01:20:29;;;;;;;88.10;25.17;;;-1.10;99.90;;;;;;5072740;28;20053;-75
2022/01/11 01:22:56;;;;;;;62.80;21.08;;;-1.10;99.90;;;;;;5072785;28;20067;-75
2022/01/11 01:25:24;;;;;;;40.70;20.95;;;-1.10;99.90;;;;;;5072010;28;20040;-75
2022/01/11 01:27:53;;;;;;;68.82;22.05;;;-1.10;99.90;;;;;;5071327;28;20140;-75
2022/01/11 01:30:21;;;;;;;40.67;21.60;;;-1.10;99.90;;;;;;5072337;28;20082;-75
2022/01/11 01:32:49;;;;;;;38.80;20.88;;;-1.10;99.90;;;;;;5072034;28;20052;-74
2022/01/11 01:35:19;;;;;;;44.15;20.98;;;-1.20;99.90;;;;;;5071365;28;20468;-77
2022/01/11 01:37:47;;;;;;;40.58;21.48;;;-1.20;99.90;;;;;;5072042;28;20052;-75
2022/01/11 01:40:17;;;;;;;35.03;20.58;;;-1.20;99.90;;;;;;5071716;28;20102;-75
2022/01/11 01:42:44;;;;;;;40.88;22.10;;;-1.20;99.90;;;;;;5071718;28;20055;-76
2022/01/11 01:45:12;;;;;;;34.22;20.30;;;-1.20;99.90;;;;;;5071709;28;20068;-76
2022/01/11 01:47:39;;;;;;;33.17;20.38;;;-1.20;99.90;;;;;;5071146;28;20056;-76
2022/01/11 01:50:08;;;;;;;34.22;21.95;;;-1.20;99.90;;;;;;5071855;28;20150;-76
2022/01/11 01:52:36;;;;;;;34.97;22.40;;;-1.30;99.90;;;;;;5071537;28;20059;-76
2022/01/11 01:55:06;;;;;;;31.35;21.35;;;-1.20;99.90;;;;;;5071434;28;20099;-76
2022/01/11 01:57:33;;;;;;;37.65;22.42;;;-1.30;99.90;;;;;;5071856;28;20052;-76
2022/01/11 02:00:03;;;;;;;40.90;22.55;;;-1.30;99.90;;;;;;5071726;28;20060;-77
2022/01/11 02:02:30;;;;;;;44.38;22.55;;;-1.30;99.90;;;;;;5071343;28;20057;-75
2022/01/11 02:04:57;;;;;;;45.58;22.08;;;-1.30;99.90;;;;;;5071807;28;20048;-75
2022/01/11 02:07:26;;;;;;;42.10;23.73;;;-1.30;99.90;;;;;;5071756;28;20045;-77
2022/01/11 02:09:55;;;;;;;40.55;23.25;;;-1.30;99.90;;;;;;5071502;28;20053;-76
2022/01/11 02:12:24;;;;;;;38.13;23.27;;;-1.30;99.90;;;;;;5072651;28;20057;-76
2022/01/11 02:14:51;;;;;;;42.55;24.08;;;-1.20;99.90;;;;;;5072082;28;20136;-75
2022/01/11 02:17:18;;;;;;;39.80;24.33;;;-1.20;99.90;;;;;;5075094;28;20052;-76
2022/01/11 02:19:45;;;;;;;39.10;23.10;;;-1.20;99.90;;;;;;5076657;28;20090;-76
2022/01/11 02:22:13;;;;;;;43.90;25.48;;;-1.20;99.90;;;;;;5075833;28;20377;-75
2022/01/11 02:24:40;;;;;;;40.63;24.67;;;-1.20;99.90;;;;;;5075889;28;20040;-76
2022/01/11 02:27:07;;;;;;;38.03;23.38;;;-1.20;99.90;;;;;;5076269;28;20106;-75
2022/01/11 02:29:34;;;;;;;45.50;25.40;;;-1.10;99.90;;;;;;5076019;28;20113;-76
2022/01/11 02:32:01;;;;;;;46.42;25.80;;;-1.10;99.90;;;;;;5076506;28;20053;-75
2022/01/11 02:34:28;;;;;;;44.63;25.00;;;-1.00;99.90;;;;;;5075727;28;20049;-76
2022/01/11 02:36:55;;;;;;;45.50;25.73;;;-1.00;99.90;;;;;;5074446;28;20052;-75
2022/01/11 02:39:23;;;;;;;44.13;24.35;;;-1.00;99.90;;;;;;5074738;28;20053;-75
2022/01/11 02:41:52;;;;;;;44.58;25.00;;;-1.00;99.90;;;;;;5075345;28;20052;-74
2022/01/11 02:44:19;;;;;;;46.25;25.17;;;-1.00;99.90;;;;;;5076110;28;20467;-76
2022/01/11 02:46:46;;;;;;;43.03;24.63;;;-0.90;99.90;;;;;;5075478;28;20178;-75
2022/01/11 02:49:12;;;;;;;47.70;26.60;;;-0.90;99.90;;;;;;5076039;28;20048;-76
2022/01/11 02:51:39;;;;;;;46.00;26.25;;;-0.90;99.90;;;;;;5075058;28;20496;-75
2022/01/11 02:54:06;;;;;;;47.45;26.13;;;-0.90;99.90;;;;;;5087610;28;20049;-75
2022/01/11 02:56:35;;;;;;;47.65;24.13;;;-0.80;99.90;;;;;;5086074;28;20048;-75
2022/01/11 02:59:03;;;;;;;55.38;27.33;;;-0.90;99.90;;;;;;5084668;28;20053;-75
2022/01/11 03:01:30;;;;;;;97.10;33.03;;;-0.80;99.90;;;;;;5087007;28;20049;-74
2022/01/11 03:03:58;;;;;;;90.30;30.80;;;-0.70;99.90;;;;;;5087726;28;20045;-76
2022/01/11 03:06:25;;;;;;;96.40;29.48;;;-0.70;99.90;;;;;;5086946;28;20048;-74
2022/01/11 03:08:52;;;;;;;100.38;31.52;;;-0.70;99.90;;;;;;5087993;28;20052;-75
2022/01/11 03:11:21;;;;;;;83.68;31.90;;;-0.70;99.90;;;;;;5089339;28;20086;-74
2022/01/11 03:13:50;;;;;;;123.90;33.95;;;-0.60;99.90;;;;;;5078109;28;20529;-75
2022/01/11 03:16:18;;;;;;;126.38;34.17;;;-0.60;99.90;;;;;;5073717;28;20545;-75
2022/01/11 03:18:45;;;;;;;128.60;36.95;;;-0.60;99.90;;;;;;5073773;28;20056;-75
2022/01/11 03:21:12;;;;;;;122.15;33.60;;;-0.60;99.90;;;;;;5072603;28;20052;-75
2022/01/11 03:23:39;;;;;;;116.85;37.05;;;-0.60;99.90;;;;;;5075455;28;20052;-75
2022/01/11 03:26:06;;;;;;;139.10;35.20;;;-0.50;99.90;;;;;;5075748;28;20488;-75
2022/01/11 03:28:34;;;;;;;155.35;37.63;;;-0.50;99.90;;;;;;5076288;28;20557;-75
2022/01/11 03:31:02;;;;;;;88.13;34.67;;;-0.50;99.90;;;;;;5073700;28;20458;-75
2022/01/11 03:33:29;;;;;;;80.22;33.10;;;-0.50;99.90;;;;;;5073330;28;20060;-76
2022/01/11 03:35:56;;;;;;;70.63;31.55;;;-0.50;99.90;;;;;;5073752;28;20050;-76
2022/01/11 03:38:23;;;;;;;70.47;33.25;;;-0.50;99.90;;;;;;5074017;28;20060;-75
2022/01/11 03:40:51;;;;;;;83.90;33.40;;;-0.50;99.90;;;;;;5073150;28;20553;-75
2022/01/11 03:43:21;;;;;;;72.10;31.38;;;-0.50;99.90;;;;;;5073875;28;20581;-75
2022/01/11 03:45:50;;;;;;;80.90;34.92;;;-0.50;99.90;;;;;;5073792;28;20530;-75
2022/01/11 03:48:19;;;;;;;62.80;30.02;;;-0.50;99.90;;;;;;5072917;28;20128;-76
2022/01/11 03:50:51;;;;;;;66.82;32.75;;;-0.50;99.90;;;;;;5073489;28;20048;-75
2022/01/11 03:53:19;;;;;;;69.13;32.60;;;-0.50;99.90;;;;;;5073660;28;20060;-75
2022/01/11 03:55:59;;;;;;;69.22;31.38;;;-0.40;99.90;;;;;;5072903;28;20492;-75
2022/01/11 03:58:29;;;;;;;56.25;30.45;;;-0.40;99.90;;;;;;5073392;28;20061;-76
2022/01/11 04:00:56;;;;;;;67.73;31.50;;;-0.50;99.90;;;;;;5073215;28;20066;-76
2022/01/11 04:03:25;;;;;;;64.18;28.00;;;-0.40;99.90;;;;;;5073255;28;20450;-76
2022/01/11 04:05:52;;;;;;;66.55;32.22;;;-0.10;99.90;;;;;;5073290;28;20123;-75
2022/01/11 04:08:19;;;;;;;63.78;30.88;;;-0.40;99.90;;;;;;5072617;28;20059;-75
2022/01/11 04:10:46;;;;;;;59.38;28.90;;;-0.40;99.90;;;;;;5072735;28;20433;-76
2022/01/11 04:13:13;;;;;;;62.63;29.17;;;-0.40;99.90;;;;;;5073087;28;20491;-75
2022/01/11 04:15:40;;;;;;;62.55;29.95;;;-0.40;99.90;;;;;;5072490;28;20076;-75
2022/01/11 04:18:07;;;;;;;62.85;28.70;;;-0.40;99.90;;;;;;5053051;28;20102;-75
2022/01/11 04:20:35;;;;;;;71.78;29.23;;;-0.40;99.90;;;;;;5052874;28;20512;-74
2022/01/11 04:23:02;;;;;;;87.75;29.80;;;-0.40;99.90;;;;;;5058177;28;20053;-74
2022/01/11 04:25:29;;;;;;;83.40;30.08;;;-0.40;99.90;;;;;;5052842;28;20562;-74
2022/01/11 04:27:56;;;;;;;66.97;26.75;;;-0.50;99.90;;;;;;5053039;28;20497;-74
2022/01/11 04:30:23;;;;;;;69.65;30.23;;;-0.40;99.90;;;;;;5052427;28;20452;-75
2022/01/11 04:32:49;;;;;;;68.40;30.67;;;-0.50;99.90;;;;;;5053617;28;20053;-75
2022/01/11 04:35:16;;;;;;;96.65;32.05;;;-0.40;99.90;;;;;;5066478;28;20040;-74
2022/01/11 04:37:46;;;;;;;73.20;29.83;;;-0.40;99.90;;;;;;5070630;28;20075;-74
2022/01/11 04:40:14;;;;;;;74.43;29.52;;;-0.40;99.90;;;;;;5070363;28;20086;-72
2022/01/11 04:42:41;;;;;;;71.35;29.58;;;-0.40;99.90;;;;;;5066087;28;20524;-73
2022/01/11 04:45:10;;;;;;;69.82;27.50;;;-0.40;99.90;;;;;;5070941;28;20078;-73
2022/01/11 04:47:37;;;;;;;66.18;30.30;;;-0.40;99.90;;;;;;5071227;28;20052;-73
2022/01/11 04:50:05;;;;;;;65.22;28.10;;;-0.30;99.90;;;;;;5072005;28;20052;-72
2022/01/11 04:52:32;;;;;;;59.92;26.83;;;-0.30;99.90;;;;;;5069865;28;20052;-73
2022/01/11 04:55:00;;;;;;;61.90;27.55;;;-0.30;99.90;;;;;;5071623;28;20500;-73
2022/01/11 04:57:27;;;;;;;51.22;26.42;;;-0.30;99.90;;;;;;5071164;28;20554;-74
2022/01/11 04:59:54;;;;;;;55.25;26.90;;;-0.40;99.90;;;;;;5071156;28;20114;-74
2022/01/11 05:02:21;;;;;;;58.25;26.55;;;-0.40;99.90;;;;;;5071082;28;20044;-73
2022/01/11 05:04:48;;;;;;;55.92;27.83;;;-0.30;99.90;;;;;;5070163;28;20090;-74
2022/01/11 05:07:15;;;;;;;55.20;25.85;;;-0.40;99.90;;;;;;5072281;28;20053;-74
2022/01/11 05:09:41;;;;;;;52.88;25.50;;;-0.40;99.90;;;;;;5072364;28;20044;-73
2022/01/11 05:12:11;;;;;;;48.30;25.50;;;-0.40;99.90;;;;;;5070846;28;20148;-74
2022/01/11 05:14:38;;;;;;;52.95;24.83;;;-0.30;99.90;;;;;;5070962;28;20404;-74
2022/01/11 05:17:05;;;;;;;57.15;27.63;;;-0.30;99.90;;;;;;5071547;28;20098;-74
2022/01/11 05:19:32;;;;;;;44.85;23.35;;;-0.30;99.90;;;;;;5070738;28;20484;-74
2022/01/11 05:21:59;;;;;;;46.22;24.17;;;-0.30;99.90;;;;;;5070670;28;20052;-74
2022/01/11 05:24:26;;;;;;;40.38;22.17;;;-0.30;99.90;;;;;;5068801;28;20137;-74
2022/01/11 05:26:53;;;;;;;46.08;23.45;;;-0.30;99.90;;;;;;5069703;28;20566;-74
2022/01/11 05:29:21;;;;;;;44.10;24.08;;;-0.30;99.90;;;;;;5070920;28;20056;-75
2022/01/11 05:31:48;;;;;;;47.75;22.35;;;-0.20;99.90;;;;;;5070805;28;20057;-74
2022/01/11 05:34:15;;;;;;;42.33;21.83;;;-0.30;99.90;;;;;;5070235;28;20165;-74
2022/01/11 05:36:42;;;;;;;42.15;22.05;;;-0.20;99.90;;;;;;5070818;28;20450;-74
2022/01/11 05:39:09;;;;;;;51.88;24.30;;;-0.20;99.90;;;;;;5070794;28;20141;-74
2022/01/11 05:41:36;;;;;;;42.50;22.98;;;-0.30;99.90;;;;;;5070056;28;20382;-74
2022/01/11 05:44:03;;;;;;;48.17;23.08;;;-0.30;99.90;;;;;;5070444;28;20098;-74
2022/01/11 05:46:32;;;;;;;46.22;22.00;;;-0.30;99.90;;;;;;5070576;28;20458;-74
2022/01/11 05:48:59;;;;;;;40.88;21.35;;;-0.30;99.90;;;;;;5070807;28;20048;-74
2022/01/11 05:51:26;;;;;;;40.42;22.33;;;-0.20;99.90;;;;;;5074129;28;20102;-73
2022/01/11 05:53:53;;;;;;;43.33;20.85;;;-0.30;99.90;;;;;;5074074;28;20056;-74
2022/01/11 05:56:20;;;;;;;39.67;20.65;;;-0.30;99.90;;;;;;5072318;28;20049;-73
2022/01/11 05:58:47;;;;;;;41.17;21.50;;;-0.30;99.90;;;;;;5073722;28;20065;-76
2022/01/11 06:01:14;;;;;;;42.05;20.80;;;-0.30;99.90;;;;;;5073962;28;20080;-76
2022/01/11 06:03:43;;;;;;;36.72;20.02;;;-0.30;99.90;;;;;;5073746;28;20537;-75
2022/01/11 06:06:09;;;;;;;40.65;20.52;;;-0.30;99.90;;;;;;5071922;28;20082;-75
2022/01/11 06:08:36;;;;;;;34.03;19.15;;;-0.30;99.90;;;;;;5071727;28;20053;-74
2022/01/11 06:11:06;;;;;;;44.42;20.42;;;-0.30;99.90;;;;;;5074679;28;20094;-73
2022/01/11 06:13:33;;;;;;;39.75;20.88;;;-0.30;99.90;;;;;;5069006;28;20059;-73
2022/01/11 06:16:00;;;;;;;34.03;18.92;;;-0.70;99.90;;;;;;5073918;28;20469;-74
2022/01/11 06:18:27;;;;;;;41.60;20.40;;;-1.30;99.90;;;;;;5071904;28;20145;-75
2022/01/11 06:20:55;;;;;;;45.35;20.75;;;-0.40;99.90;;;;;;5074538;28;20121;-75
2022/01/11 06:23:22;;;;;;;41.53;21.40;;;-0.30;99.90;;;;;;5073342;28;20056;-74
2022/01/11 06:25:48;;;;;;;38.67;19.45;;;-0.30;99.90;;;;;;5074243;28;20462;-74
2022/01/11 06:28:15;;;;;;;43.40;20.73;;;-0.30;99.90;;;;;;5074027;28;20048;-74
2022/01/11 06:30:42;;;;;;;43.35;21.08;;;-0.40;99.90;;;;;;5073631;28;20044;-73
2022/01/11 06:33:09;;;;;;;43.25;21.80;;;-0.30;99.90;;;;;;5073806;28;20102;-74
2022/01/11 06:35:36;;;;;;;39.55;20.90;;;-0.30;99.90;;;;;;5074335;28;20048;-74
2022/01/11 06:38:04;;;;;;;36.95;19.35;;;-0.40;99.90;;;;;;5073405;28;20048;-75
2022/01/11 06:40:31;;;;;;;39.28;21.23;;;-0.30;99.90;;;;;;5074276;28;20048;-74
2022/01/11 06:42:58;;;;;;;31.73;18.88;;;-0.30;99.90;;;;;;5073417;28;20056;-74
2022/01/11 06:45:25;;;;;;;39.05;20.92;;;-0.30;99.90;;;;;;5073832;28;20090;-73
2022/01/11 06:47:53;;;;;;;39.13;19.83;;;-0.30;99.90;;;;;;5074011;28;20126;-74
2022/01/11 06:50:21;;;;;;;39.50;19.83;;;-0.30;99.90;;;;;;5073500;28;20102;-75
2022/01/11 06:52:48;;;;;;;43.35;19.67;;;-0.30;99.90;;;;;;5070790;28;20060;-75
2022/01/11 06:55:17;;;;;;;37.05;19.65;;;-0.30;99.90;;;;;;5073941;28;20508;-75
2022/01/11 06:57:44;;;;;;;38.97;18.60;;;-0.30;99.90;;;;;;5068785;28;20036;-73
2022/01/11 07:00:12;;;;;;;40.97;19.17;;;-0.30;99.90;;;;;;5071618;28;20048;-74
2022/01/11 07:02:39;;;;;;;45.55;20.55;;;-0.30;99.90;;;;;;5075701;28;20045;-74
2022/01/11 07:05:07;;;;;;;39.35;20.35;;;-0.30;99.90;;;;;;5071416;28;20044;-73
2022/01/11 07:07:34;;;;;;;36.05;21.13;;;-0.40;99.90;;;;;;5073201;28;20049;-73
2022/01/11 07:10:01;;;;;;;40.28;19.38;;;-0.40;99.90;;;;;;5073334;28;20052;-74
2022/01/11 07:12:29;;;;;;;36.70;19.77;;;-0.40;99.90;;;;;;5072459;28;20052;-74
2022/01/11 07:14:56;;;;;;;40.97;20.38;;;-0.40;99.90;;;;;;5073282;28;20052;-74
2022/01/11 07:17:25;;;;;;;38.78;19.35;;;-0.40;99.90;;;;;;5073303;28;20483;-74
2022/01/11 07:19:52;;;;;;;39.20;19.42;;;-0.50;99.90;;;;;;5072792;28;20053;-75
2022/01/11 07:22:18;;;;;;;40.00;20.92;;;-0.50;99.90;;;;;;5072716;28;20094;-75
2022/01/11 07:24:45;;;;;;;37.13;19.33;;;-0.50;99.90;;;;;;5073195;28;20124;-76
2022/01/11 07:27:14;;;;;;;37.47;20.38;;;-0.40;99.90;;;;;;5072400;28;20084;-76
2022/01/11 07:29:42;;;;;;;39.95;20.23;;;-0.50;99.90;;;;;;5073437;28;20094;-75
2022/01/11 07:32:09;;;;;;;37.25;20.25;;;-0.40;99.90;;;;;;5070403;28;20270;-77
2022/01/11 07:34:36;;;;;;;35.97;18.48;;;-0.40;99.90;;;;;;5072255;28;20113;-75
2022/01/11 07:37:03;;;;;;;36.80;18.15;;;-0.40;99.90;;;;;;5073732;28;20480;-76
2022/01/11 07:39:30;;;;;;;35.65;19.50;;;-0.30;99.90;;;;;;5073178;28;20487;-73
2022/01/11 07:41:57;;;;;;;37.53;18.48;;;-0.30;99.90;;;;;;5073276;28;20133;-74
2022/01/11 07:44:24;;;;;;;31.60;18.50;;;-0.30;99.90;;;;;;5073798;28;20106;-74
2022/01/11 07:46:53;;;;;;;40.55;19.65;;;-0.20;99.90;;;;;;5073174;28;20059;-74
2022/01/11 07:49:20;;;;;;;36.03;19.45;;;-0.20;99.90;;;;;;5073963;28;20056;-74
2022/01/11 07:51:47;;;;;;;32.95;17.83;;;-0.20;99.90;;;;;;5073614;28;20070;-74
2022/01/11 07:54:14;;;;;;;33.10;17.23;;;-0.10;99.90;;;;;;5073532;28;20400;-75
2022/01/11 07:56:41;;;;;;;30.42;16.85;;;-0.10;99.90;;;;;;5074148;28;20078;-75
2022/01/11 07:59:09;;;;;;;35.85;17.27;;;-0.10;99.90;;;;;;5082225;28;20082;-75
2022/01/11 08:01:36;;;;;;;28.48;16.20;;;-0.10;99.90;;;;;;5082004;28;20131;-75
2022/01/11 08:04:05;;;;;;;28.77;16.20;;;0.00;99.90;;;;;;5085582;28;20055;-74
2022/01/11 08:06:32;;;;;;;33.85;17.00;;;0.00;99.90;;;;;;5083499;28;20044;-74
2022/01/11 08:08:59;;;;;;;35.25;18.95;;;0.00;99.90;;;;;;5077597;28;20060;-74
2022/01/11 08:11:26;;;;;;;30.45;16.45;;;0.10;99.90;;;;;;5081070;28;20181;-74
2022/01/11 08:13:53;;;;;;;33.40;17.20;;;0.10;99.90;;;;;;5078952;28;20044;-74
2022/01/11 08:16:20;;;;;;;32.42;16.58;;;0.10;99.90;;;;;;5076803;28;20148;-74
2022/01/11 08:18:47;;;;;;;31.65;16.13;;;0.20;99.90;;;;;;5079634;28;20056;-74
2022/01/11 08:21:15;;;;;;;30.17;16.35;;;0.30;99.90;;;;;;5073518;28;20117;-75
2022/01/11 08:23:42;;;;;;;25.25;14.93;;;0.70;99.90;;;;;;5072055;28;20130;-75
2022/01/11 08:26:09;;;;;;;29.25;15.32;;;1.30;99.90;;;;;;5073017;28;20450;-74
2022/01/11 08:28:36;;;;;;;30.05;15.73;;;1.90;99.90;;;;;;5071841;28;20048;-73
2022/01/11 08:31:03;;;;;;;24.42;14.65;;;2.50;99.90;;;;;;5072690;28;20060;-75
2022/01/11 08:33:30;;;;;;;22.23;13.68;;;3.00;99.90;;;;;;5072640;28;20104;-74
2022/01/11 08:35:56;;;;;;;30.23;14.68;;;3.30;99.90;;;;;;5072407;28;20056;-73
2022/01/11 08:38:25;;;;;;;25.48;13.82;;;3.50;99.90;;;;;;5073777;28;20052;-74
2022/01/11 08:40:51;;;;;;;22.10;12.95;;;3.10;99.90;;;;;;5072965;28;20083;-73
2022/01/11 08:43:18;;;;;;;26.30;13.52;;;2.60;99.90;;;;;;5071668;28;20048;-74
2022/01/11 08:45:45;;;;;;;23.88;14.02;;;2.10;99.90;;;;;;5072364;28;20439;-74
2022/01/11 08:48:12;;;;;;;23.40;13.13;;;1.80;99.90;;;;;;5072172;28;20049;-74
2022/01/11 08:50:39;;;;;;;24.08;12.60;;;1.60;99.90;;;;;;5071704;28;20052;-74
2022/01/11 08:53:06;;;;;;;24.52;12.40;;;1.80;99.90;;;;;;5063111;28;20881;-74
2022/01/11 08:55:35;;;;;;;21.80;13.20;;;2.00;99.90;;;;;;5062567;28;20053;-74
2022/01/11 08:58:02;;;;;;;23.88;13.73;;;2.10;99.90;;;;;;5071289;28;20094;-74
2022/01/11 09:00:28;;;;;;;24.60;13.73;;;2.20;99.90;;;;;;5072512;28;20139;-74
2022/01/11 09:02:55;;;;;;;20.55;11.85;;;2.00;99.90;;;;;;5071755;28;20515;-74
2022/01/11 09:05:24;;;;;;;21.52;11.40;;;1.80;99.90;;;;;;5071183;28;20504;-75
2022/01/11 09:07:51;;;;;;;21.33;12.90;;;1.50;99.90;;;;;;5071570;28;20507;-73
2022/01/11 09:10:18;;;;;;;22.27;13.20;;;1.40;99.90;;;;;;5071987;28;20052;-74
2022/01/11 09:12:47;;;;;;;28.10;13.68;;;1.20;99.90;;;;;;5069284;28;20045;-73
2022/01/11 09:15:14;;;;;;;22.10;12.95;;;1.10;99.90;;;;;;5072210;28;20117;-73
2022/01/11 09:17:42;;;;;;;20.02;11.93;;;1.00;99.90;;;;;;5071296;28;20048;-73
2022/01/11 09:20:12;;;;;;;28.95;13.15;;;1.00;99.90;;;;;;5071451;28;20575;-73
2022/01/11 09:22:38;;;;;;;25.73;13.82;;;0.90;99.90;;;;;;5071334;28;20114;-74
2022/01/11 09:25:06;;;;;;;19.67;12.57;;;0.80;99.90;;;;;;5070407;28;20060;-74
2022/01/11 09:27:33;;;;;;;26.83;11.68;;;0.80;99.90;;;;;;5071330;28;20097;-73
2022/01/11 09:30:06;;;;;;;21.55;12.80;;;0.90;99.90;;;;;;5071103;28;20052;-73
2022/01/11 09:32:34;;;;;;;23.88;12.38;;;0.80;99.90;;;;;;5071201;28;20063;-74
2022/01/11 09:35:00;;;;;;;19.70;12.23;;;0.90;99.90;;;;;;5071659;28;20062;-73
2022/01/11 09:37:28;;;;;;;23.52;12.18;;;0.80;99.90;;;;;;5071243;28;20044;-74
2022/01/11 09:39:55;;;;;;;20.65;12.00;;;0.80;99.90;;;;;;5071251;28;20090;-74
2022/01/11 09:42:23;;;;;;;19.52;12.27;;;0.80;99.90;;;;;;5070815;28;20458;-74
2022/01/11 09:44:50;;;;;;;22.50;11.93;;;0.80;99.90;;;;;;5070713;28;20056;-74
2022/01/11 09:47:18;;;;;;;16.85;10.90;;;0.90;99.90;;;;;;5070752;28;20072;-73
2022/01/11 09:49:46;;;;;;;21.85;12.60;;;0.90;99.90;;;;;;5071517;28;20052;-73
2022/01/11 09:52:13;;;;;;;20.02;11.57;;;0.90;99.90;;;;;;5069908;28;20044;-73
2022/01/11 09:54:43;;;;;;;18.35;10.43;;;0.90;99.90;;;;;;5070391;28;20056;-73
2022/01/11 09:57:10;;;;;;;21.70;11.40;;;0.90;99.90;;;;;;5071166;28;20110;-72
2022/01/11 09:59:38;;;;;;;17.58;10.05;;;1.00;99.90;;;;;;5071309;28;20401;-73
2022/01/11 10:02:05;;;;;;;18.27;10.48;;;1.10;99.90;;;;;;5070839;28;20113;-74
2022/01/11 10:04:35;;;;;;;17.90;9.80;;;1.00;99.90;;;;;;5056719;28;20048;-73
2022/01/11 10:07:04;;;;;;;17.27;10.45;;;1.00;99.90;;;;;;5070853;28;20400;-73
2022/01/11 10:09:33;;;;;;;16.90;10.75;;;1.10;99.90;;;;;;5072496;28;20488;-73
2022/01/11 10:12:02;;;;;;;19.77;11.55;;;1.30;99.90;;;;;;5072407;28;20052;-73
2022/01/11 10:14:32;;;;;;;19.15;11.32;;;1.40;99.90;;;;;;5070796;28;20109;-73
2022/01/11 10:17:12;;;;;;;16.90;11.32;;;1.40;99.90;;;;;;5071280;28;20500;-74
2022/01/11 10:19:42;;;;;;;18.33;10.53;;;1.60;99.90;;;;;;5071563;28;20110;-74
2022/01/11 10:22:10;;;;;;;21.88;11.77;;;1.70;99.90;;;;;;5070615;28;20084;-74
2022/01/11 10:24:42;;;;;;;21.50;11.38;;;1.70;99.90;;;;;;5071246;28;20496;-73
2022/01/11 10:27:15;;;;;;;18.30;10.63;;;1.80;99.90;;;;;;5070991;28;20048;-74
2022/01/11 10:29:43;;;;;;;21.58;11.73;;;1.80;99.90;;;;;;5071693;28;20052;-74
2022/01/11 10:32:32;;;;;;;17.40;10.88;;;1.70;99.90;;;;;;5071267;28;20118;-74
2022/01/11 10:35:04;;;;;;;18.30;11.32;;;1.60;99.90;;;;;;5065160;28;20412;-73
2022/01/11 10:37:34;;;;;;;23.27;11.95;;;1.60;99.90;;;;;;5074260;28;20098;-74
2022/01/11 10:40:11;;;;;;;18.08;11.65;;;1.60;99.90;;;;;;5074718;28;20097;-73
2022/01/11 10:42:41;;;;;;;20.92;11.00;;;1.70;99.90;;;;;;5074178;28;20044;-74
2022/01/11 10:45:11;;;;;;;21.10;11.80;;;1.70;99.90;;;;;;5074658;28;20044;-74
2022/01/11 10:47:40;;;;;;;21.47;12.97;;;1.80;99.90;;;;;;5074476;28;20049;-74
2022/01/11 10:50:11;;;;;;;23.05;13.05;;;1.90;99.90;;;;;;5074061;28;20138;-72
2022/01/11 10:52:38;;;;;;;24.80;12.57;;;2.00;99.90;;;;;;5075417;28;20469;-75
2022/01/11 10:55:07;;;;;;;16.45;11.32;;;2.10;99.90;;;;;;5071077;28;20064;-74
2022/01/11 10:57:38;;;;;;;19.20;10.90;;;2.40;99.90;;;;;;5062650;28;20045;-75
2022/01/11 11:00:17;;;;;;;19.65;12.02;;;2.50;99.90;;;;;;5069091;28;20067;-75
2022/01/11 11:02:49;;;;;;;18.95;11.32;;;2.70;99.90;;;;;;5074118;28;20056;-75
2022/01/11 11:05:24;;;;;;;22.42;12.15;;;3.10;99.90;;;;;;5072933;28;20075;-76
2022/01/11 11:08:03;;;;;;;20.80;11.80;;;4.70;99.90;;;;;;5069476;28;20579;-77
2022/01/11 11:10:34;;;;;;;21.33;12.20;;;6.50;99.90;;;;;;5070103;28;20545;-76
2022/01/11 11:13:02;;;;;;;19.23;11.82;;;7.80;99.90;;;;;;5078209;28;20060;-75
2022/01/11 11:15:30;;;;;;;19.65;12.18;;;8.70;99.90;;;;;;5059640;28;20480;-76
2022/01/11 11:17:58;;;;;;;20.27;12.45;;;8.90;99.90;;;;;;5070249;28;20049;-75
2022/01/11 11:20:26;;;;;;;20.00;11.30;;;8.60;99.90;;;;;;5070103;28;20053;-75
2022/01/11 11:22:53;;;;;;;18.08;11.57;;;8.50;99.90;;;;;;5053792;28;20056;-76
2022/01/11 11:25:21;;;;;;;20.77;12.20;;;8.50;99.90;;;;;;5070758;28;20114;-76
2022/01/11 11:27:48;;;;;;;17.48;11.95;;;8.90;99.90;;;;;;5073756;28;20049;-75
2022/01/11 11:30:16;;;;;;;17.63;11.35;;;9.00;99.90;;;;;;5074555;28;20549;-75
2022/01/11 11:32:46;;;;;;;16.33;11.63;;;8.60;99.90;;;;;;5073100;28;20458;-75
2022/01/11 11:35:14;;;;;;;20.02;12.35;;;8.60;99.90;;;;;;5073323;28;20063;-75
2022/01/11 11:37:43;;;;;;;16.83;11.23;;;8.40;99.90;;;;;;5073742;28;20054;-75
2022/01/11 11:40:14;;;;;;;19.45;11.68;;;8.00;99.90;;;;;;5073995;28;20385;-76
2022/01/11 11:42:41;;;;;;;19.13;12.20;;;7.70;99.90;;;;;;5073420;28;20053;-76
2022/01/11 11:45:17;;;;;;;18.67;11.55;;;7.70;99.90;;;;;;5073127;28;20525;-76
2022/01/11 11:47:45;;;;;;;17.48;11.05;;;7.40;99.90;;;;;;5072553;28;20137;-76
2022/01/11 11:50:14;;;;;;;16.85;11.35;;;6.80;99.90;;;;;;5073545;28;20364;-76
2022/01/11 11:52:45;;;;;;;20.52;12.35;;;6.50;99.90;;;;;;5072887;28;20117;-77
2022/01/11 11:55:19;;;;;;;19.45;11.93;;;6.10;99.90;;;;;;5072312;28;20451;-75
2022/01/11 11:57:47;;;;;;;17.45;11.27;;;5.90;99.90;;;;;;5073448;28;20102;-77
2022/01/11 12:00:18;;;;;;;21.30;13.50;;;5.50;99.90;;;;;;5073415;28;20064;-74
2022/01/11 12:02:47;;;;;;;21.33;12.25;;;5.40;99.90;;;;;;5072677;28;20082;-75
2022/01/11 12:05:29;;;;;;;17.48;12.05;;;5.20;99.90;;;;;;5072680;28;20110;-76
2022/01/11 12:07:58;;;;;;;18.02;10.70;;;5.00;99.90;;;;;;5072118;28;20049;-76
2022/01/11 12:10:49;;;;;;;19.88;12.38;;;4.90;99.90;;;;;;5072502;28;20106;-76
2022/01/11 12:13:38;;;;;;;18.40;11.50;;;4.70;99.90;;;;;;5090037;28;20064;-76
2022/01/11 12:16:26;;;;;;;20.48;12.25;;;4.60;99.90;;;;;;5090171;28;20048;-76
2022/01/11 12:18:53;;;;;;;19.88;11.05;;;4.40;99.90;;;;;;5073205;28;20040;-76
2022/01/11 12:21:21;;;;;;;21.00;12.57;;;4.20;99.90;;;;;;5072314;28;20076;-76
2022/01/11 12:23:54;;;;;;;18.80;12.18;;;4.10;99.90;;;;;;5072043;28;20079;-76
2022/01/11 12:26:25;;;;;;;19.05;11.60;;;4.00;99.90;;;;;;5071626;28;20492;-77
2022/01/11 12:29:22;;;;;;;17.45;10.93;;;4.00;99.90;;;;;;5059903;28;20128;-77
2022/01/11 12:31:53;;;;;;;20.02;11.43;;;3.90;99.90;;;;;;5072672;28;20497;-77
2022/01/11 12:34:58;;;;;;;19.35;10.93;;;3.80;99.90;;;;;;5053137;28;20123;-76
2022/01/11 12:37:28;;;;;;;20.58;11.75;;;3.80;99.90;;;;;;5069462;28;20052;-77
2022/01/11 12:40:29;;;;;;;19.15;11.93;;;3.70;99.90;;;;;;5058325;28;20048;-77